createdAt,value
2019-04-06T00:01:10.782Z,25.47
2019-04-06T00:04:00.865Z,25.60
2019-04-06T00:06:51.265Z,29.17
2019-04-06T00:09:42.475Z,25.63
2019-04-06T00:12:33.096Z,26.87
2019-04-06T00:15:26.059Z,24.10
2019-04-06T00:18:17.300Z,23.20
2019-04-06T00:21:08.892Z,24.57
2019-04-06T00:23:59.427Z,30.80
2019-04-06T00:26:50.695Z,21.23
2019-04-06T00:29:41.898Z,16.77
2019-04-06T00:32:53.035Z,18.10
2019-04-06T00:35:44.477Z,15.47
2019-04-06T00:38:35.334Z,23.90
2019-04-06T00:41:26.566Z,25.23
2019-04-06T00:44:17.866Z,21.67
2019-04-06T00:47:09.272Z,24.73
2019-04-06T00:49:59.633Z,21.07
2019-04-06T00:52:49.878Z,23.80
2019-04-06T00:55:40.179Z,22.17
2019-04-06T00:58:31.008Z,22.03
2019-04-06T01:01:22.285Z,21.30
2019-04-06T01:04:12.939Z,23.30
2019-04-06T01:07:03.576Z,20.47
2019-04-06T01:09:54.909Z,21.90
2019-04-06T01:12:45.765Z,22.20
2019-04-06T01:15:37.115Z,20.10
2019-04-06T01:18:27.454Z,17.33
2019-04-06T01:21:18.112Z,16.23
2019-04-06T01:24:10.407Z,17.97
2019-04-06T01:27:02.152Z,17.90
2019-04-06T01:29:53.665Z,18.43
2019-04-06T01:32:45.296Z,17.17
2019-04-06T01:35:37.670Z,15.20
2019-04-06T01:38:27.975Z,15.80
2019-04-06T01:41:18.657Z,15.70
2019-04-06T01:44:10.065Z,15.83
2019-04-06T01:47:00.410Z,21.23
2019-04-06T01:49:51.554Z,16.77
2019-04-06T01:52:42.180Z,14.97
2019-04-06T01:55:32.245Z,15.63
2019-04-06T01:58:23.449Z,15.33
2019-04-06T02:01:25.251Z,17.47
2019-04-06T02:04:16.052Z,17.30
2019-04-06T02:07:07.459Z,16.43
2019-04-06T02:09:57.740Z,19.17
2019-04-06T02:12:48.231Z,18.70
2019-04-06T02:15:39.226Z,18.70
2019-04-06T02:18:29.443Z,18.47
2019-04-06T02:21:22.297Z,17.97
2019-04-06T02:24:13.508Z,19.43
2019-04-06T02:27:03.757Z,16.90
2019-04-06T02:30:31.299Z,15.83
2019-04-06T02:33:28.659Z,15.20
2019-04-06T02:36:40.665Z,14.67
2019-04-06T02:40:01.948Z,13.67
2019-04-06T02:42:56.824Z,14.23
2019-04-06T02:45:47.966Z,13.90
2019-04-06T02:48:38.453Z,13.87
2019-04-06T02:51:32.254Z,13.50
2019-04-06T02:54:24.143Z,13.47
2019-04-06T02:57:14.391Z,14.20
2019-04-06T03:00:05.535Z,14.00
2019-04-06T03:02:56.174Z,13.17
2019-04-06T03:05:46.624Z,14.13
2019-04-06T03:08:37.177Z,14.00
2019-04-06T03:11:27.744Z,14.60
2019-04-06T03:14:19.427Z,16.33
2019-04-06T03:17:10.898Z,13.90
2019-04-06T03:20:02.180Z,13.97
2019-04-06T03:22:52.910Z,13.83
2019-04-06T03:25:43.362Z,14.60
2019-04-06T03:28:33.608Z,13.87
2019-04-06T03:31:27.307Z,14.40
2019-04-06T03:34:20.688Z,15.03
2019-04-06T03:37:08.135Z,14.17
2019-04-06T03:39:58.276Z,14.70
2019-04-06T03:42:49.521Z,15.13
2019-04-06T03:45:39.727Z,13.50
2019-04-06T03:48:30.829Z,14.20
2019-04-06T03:51:21.942Z,14.07
2019-04-06T03:54:12.962Z,14.50
2019-04-06T03:57:14.601Z,13.60
2019-04-06T03:59:55.539Z,13.80
2019-04-06T04:02:45.652Z,14.53
2019-04-06T04:05:36.281Z,14.90
2019-04-06T04:08:27.751Z,16.53
2019-04-06T04:11:19.422Z,21.53
2019-04-06T04:14:10.833Z,15.53
2019-04-06T04:17:02.095Z,15.87
2019-04-06T04:19:52.127Z,19.30
2019-04-06T04:22:42.969Z,15.03
2019-04-06T04:25:33.295Z,16.30
2019-04-06T04:28:24.185Z,18.23
2019-04-06T04:31:15.300Z,13.90
2019-04-06T04:34:09.068Z,15.13
2019-04-06T04:37:00.000Z,16.33
2019-04-06T04:39:51.350Z,17.03
2019-04-06T04:42:42.476Z,15.17
2019-04-06T04:45:32.515Z,14.83
2019-04-06T04:48:23.498Z,15.57
2019-04-06T04:51:13.709Z,17.10
2019-04-06T04:54:04.259Z,15.83
2019-04-06T04:56:55.131Z,16.80
2019-04-06T04:59:46.664Z,17.50
2019-04-06T05:02:38.102Z,14.43
2019-04-06T05:05:29.493Z,17.50
2019-04-06T05:08:19.929Z,17.47
2019-04-06T05:11:10.869Z,14.97
2019-04-06T05:14:56.473Z,15.00
2019-04-06T05:17:47.428Z,17.53
2019-04-06T05:20:37.837Z,13.77
2019-04-06T05:23:29.200Z,16.00
2019-04-06T05:26:21.660Z,15.17
2019-04-06T05:29:12.350Z,14.83
2019-04-06T05:32:02.850Z,14.90
2019-04-06T05:34:54.217Z,14.87
2019-04-06T05:37:44.712Z,14.83
2019-04-06T05:40:35.681Z,15.37
2019-04-06T05:43:26.740Z,18.70
2019-04-06T05:46:17.472Z,15.60
2019-04-06T05:49:08.561Z,15.17
2019-04-06T05:51:59.838Z,14.50
2019-04-06T05:54:50.198Z,14.80
2019-04-06T05:57:42.414Z,20.63
2019-04-06T06:00:34.456Z,18.10
2019-04-06T06:03:24.916Z,15.50
2019-04-06T06:06:16.208Z,21.77
2019-04-06T06:09:08.222Z,17.57
2019-04-06T06:11:58.644Z,18.17
2019-04-06T06:14:49.017Z,16.07
2019-04-06T06:17:40.089Z,16.60
2019-04-06T06:20:30.641Z,16.23
2019-04-06T06:23:21.829Z,16.23
2019-04-06T06:26:12.417Z,14.93
2019-04-06T06:29:02.663Z,15.20
2019-04-06T06:31:52.985Z,14.70
2019-04-06T06:34:43.240Z,15.13
2019-04-06T06:37:33.471Z,15.77
2019-04-06T06:40:24.345Z,13.83
2019-04-06T06:43:14.986Z,13.40
2019-04-06T06:46:05.576Z,14.47
2019-04-06T06:48:56.813Z,13.07
2019-04-06T06:51:48.152Z,13.77
2019-04-06T06:54:38.620Z,14.83
2019-04-06T06:57:30.379Z,14.90
2019-04-06T07:00:21.596Z,14.00
2019-04-06T07:03:13.757Z,14.03
2019-04-06T07:06:05.541Z,13.70
2019-04-06T07:08:56.785Z,12.90
2019-04-06T07:11:48.316Z,14.87
2019-04-06T07:14:39.701Z,12.90
2019-04-06T07:17:31.327Z,14.80
2019-04-06T07:20:23.050Z,14.60
2019-04-06T07:23:14.202Z,13.30
2019-04-06T07:26:05.856Z,13.37
2019-04-06T07:28:56.361Z,13.87
2019-04-06T07:31:46.712Z,13.67
2019-04-06T07:34:36.808Z,14.37
2019-04-06T07:37:27.955Z,14.83
2019-04-06T07:40:19.437Z,12.80
2019-04-06T07:43:09.937Z,13.13
2019-04-06T07:46:01.223Z,13.47
2019-04-06T07:48:51.784Z,14.70
2019-04-06T07:51:42.149Z,13.53
2019-04-06T07:54:32.556Z,13.93
2019-04-06T07:57:23.806Z,13.40
2019-04-06T08:00:14.802Z,15.63
2019-04-06T08:03:07.190Z,13.40
2019-04-06T08:05:58.201Z,14.70
2019-04-06T08:09:08.875Z,14.97
2019-04-06T08:12:00.114Z,13.67
2019-04-06T08:14:51.049Z,13.07
2019-04-06T08:17:42.121Z,16.13
2019-04-06T08:20:33.599Z,12.53
2019-04-06T08:23:24.472Z,13.90
2019-04-06T08:26:14.715Z,13.30
2019-04-06T08:29:05.108Z,13.87
2019-04-06T08:31:55.632Z,15.47
2019-04-06T08:34:46.335Z,13.47
2019-04-06T08:37:36.651Z,13.13
2019-04-06T08:40:26.913Z,13.20
2019-04-06T08:43:17.894Z,12.73
2019-04-06T08:46:09.074Z,12.73
2019-04-06T08:49:00.403Z,12.10
2019-04-06T08:51:50.915Z,13.07
2019-04-06T08:54:41.919Z,13.20
2019-04-06T08:57:33.190Z,14.80
2019-04-06T09:00:23.609Z,12.73
2019-04-06T09:03:14.434Z,13.00
2019-04-06T09:06:05.758Z,13.37
2019-04-06T09:08:57.117Z,14.53
2019-04-06T09:11:48.625Z,15.00
2019-04-06T09:14:39.667Z,14.07
2019-04-06T09:17:30.314Z,14.67
2019-04-06T09:20:21.562Z,14.10
2019-04-06T09:23:13.770Z,13.60
2019-04-06T09:26:04.880Z,16.50
2019-04-06T09:28:55.041Z,16.27
2019-04-06T09:31:57.826Z,13.77
2019-04-06T09:34:49.163Z,13.60
2019-04-06T09:37:39.566Z,13.00
2019-04-06T09:40:30.324Z,14.27
2019-04-06T09:43:21.601Z,14.63
2019-04-06T09:46:24.321Z,14.07
2019-04-06T09:49:34.462Z,14.80
2019-04-06T09:52:35.861Z,14.63
2019-04-06T09:55:41.285Z,14.57
2019-04-06T09:58:51.266Z,13.83
2019-04-06T10:02:02.418Z,18.33
2019-04-06T10:05:09.819Z,17.00
2019-04-06T10:08:24.815Z,13.90
2019-04-06T10:11:34.570Z,15.40
2019-04-06T10:14:57.601Z,14.80
2019-04-06T10:18:07.110Z,15.30
2019-04-06T10:21:16.997Z,14.63
2019-04-06T10:24:41.988Z,14.23
2019-04-06T10:28:03.742Z,13.80
2019-04-06T10:31:13.169Z,15.70
2019-04-06T10:34:28.093Z,14.33
2019-04-06T10:37:36.584Z,18.07
2019-04-06T10:40:51.632Z,15.23
2019-04-06T10:44:04.808Z,15.60
2019-04-06T10:47:18.454Z,14.50
2019-04-06T10:50:26.727Z,16.00
2019-04-06T10:53:38.656Z,20.87
2019-04-06T10:56:41.090Z,15.60
2019-04-06T11:00:03.406Z,16.43
2019-04-06T11:03:01.898Z,16.60
2019-04-06T11:05:58.002Z,15.93
2019-04-06T11:09:10.931Z,18.63
2019-04-06T11:12:26.202Z,17.07
2019-04-06T11:15:54.195Z,17.20
2019-04-06T11:19:16.544Z,21.63
2019-04-06T11:22:24.877Z,18.97
2019-04-06T11:25:34.245Z,15.27
2019-04-06T11:28:44.510Z,16.57
2019-04-06T11:31:52.620Z,16.40
2019-04-06T11:35:01.339Z,21.90
2019-04-06T11:38:27.881Z,17.67
2019-04-06T11:41:44.481Z,20.30
2019-04-06T11:44:56.160Z,16.10
2019-04-06T11:48:11.305Z,16.37
2019-04-06T11:51:17.620Z,15.97
2019-04-06T11:54:25.465Z,15.10
2019-04-06T11:57:30.605Z,16.30
2019-04-06T12:00:42.828Z,16.10
2019-04-06T12:03:51.247Z,16.77
2019-04-06T12:07:09.522Z,15.17
2019-04-06T12:10:18.266Z,15.67
2019-04-06T12:13:33.640Z,16.57
2019-04-06T12:16:45.146Z,16.23
2019-04-06T12:19:55.731Z,18.70
2019-04-06T12:22:53.642Z,14.73
2019-04-06T12:26:12.749Z,15.43
2019-04-06T12:29:20.920Z,18.30
2019-04-06T12:32:39.525Z,18.80
2019-04-06T12:35:52.604Z,14.60
2019-04-06T12:39:01.713Z,14.43
2019-04-06T12:42:10.505Z,21.70
2019-04-06T12:45:32.691Z,21.47
2019-04-06T12:48:47.913Z,16.07
2019-04-06T12:51:48.353Z,15.60
2019-04-06T12:55:02.121Z,16.27
2019-04-06T12:58:02.135Z,17.73
2019-04-06T13:01:12.448Z,17.03
2019-04-06T13:04:22.156Z,21.83
2019-04-06T13:07:27.092Z,20.50
2019-04-06T13:10:29.279Z,17.73
2019-04-06T13:13:35.787Z,21.33
2019-04-06T13:16:51.219Z,17.13
2019-04-06T13:20:02.585Z,18.57
2019-04-06T13:23:22.656Z,17.63
2019-04-06T13:26:32.035Z,20.67
2019-04-06T13:29:31.646Z,17.97
2019-04-06T13:32:40.763Z,20.80
2019-04-06T13:35:57.131Z,21.87
2019-04-06T13:39:10.111Z,23.60
2019-04-06T13:42:19.049Z,17.83
2019-04-06T13:45:34.809Z,20.60
2019-04-06T13:48:37.203Z,21.30
2019-04-06T13:51:49.586Z,19.53
2019-04-06T13:55:16.999Z,23.13
2019-04-06T13:58:12.344Z,19.87
2019-04-06T14:01:15.999Z,16.83
2019-04-06T14:04:19.605Z,16.50
2019-04-06T14:07:34.786Z,17.53
2019-04-06T14:10:53.472Z,19.63
2019-04-06T14:14:03.113Z,23.63
2019-04-06T14:17:11.480Z,19.97
2019-04-06T14:20:32.987Z,18.97
2019-04-06T14:23:40.739Z,17.23
2019-04-06T14:27:05.943Z,19.00
2019-04-06T14:30:18.493Z,14.80
2019-04-06T14:33:27.430Z,16.90
2019-04-06T14:36:36.262Z,14.70
2019-04-06T14:39:46.644Z,16.30
2019-04-06T14:42:56.465Z,17.87
2019-04-06T14:46:05.871Z,19.90
2019-04-06T14:49:28.550Z,17.80
2019-04-06T14:52:27.280Z,20.07
2019-04-06T14:55:37.589Z,20.00
2019-04-06T14:59:05.422Z,18.97
2019-04-06T15:02:11.853Z,17.70
2019-04-06T15:05:20.338Z,17.33
2019-04-06T15:08:48.187Z,19.60
2019-04-06T15:11:45.071Z,19.00
2019-04-06T15:14:45.879Z,16.63
2019-04-06T15:17:54.909Z,16.10
2019-04-06T15:20:52.253Z,16.57
2019-04-06T15:24:01.705Z,17.10
2019-04-06T15:27:11.394Z,16.10
2019-04-06T15:30:25.805Z,15.57
2019-04-06T15:33:34.561Z,14.90
2019-04-06T15:36:38.672Z,14.60
2019-04-06T15:39:39.430Z,14.40
2019-04-06T15:42:47.587Z,16.73
2019-04-06T15:45:54.955Z,15.60
2019-04-06T15:48:57.609Z,18.07
2019-04-06T15:52:11.389Z,16.67
2019-04-06T15:55:17.079Z,14.50
2019-04-06T15:58:30.599Z,16.43
2019-04-06T16:01:33.937Z,16.07
2019-04-06T16:04:41.469Z,16.37
2019-04-06T16:07:57.129Z,16.50
2019-04-06T16:11:04.370Z,17.20
2019-04-06T16:14:13.488Z,16.50
2019-04-06T16:17:24.103Z,16.13
2019-04-06T16:20:29.445Z,16.40
2019-04-06T16:23:39.174Z,15.37
2019-04-06T16:26:38.916Z,17.77
2019-04-06T16:30:00.625Z,20.07
2019-04-06T16:33:18.777Z,16.87
2019-04-06T16:36:15.713Z,18.23
2019-04-06T16:39:25.548Z,16.70
2019-04-06T16:42:34.805Z,16.90
2019-04-06T16:45:50.631Z,17.63
2019-04-06T16:49:11.899Z,16.93
2019-04-06T16:52:21.161Z,17.50
2019-04-06T16:55:31.471Z,16.67
2019-04-06T16:58:46.793Z,20.27
2019-04-06T17:02:04.805Z,20.70
2019-04-06T17:05:14.758Z,24.63
2019-04-06T17:08:28.171Z,19.07
2019-04-06T17:11:36.969Z,19.90
2019-04-06T17:14:40.096Z,21.77
2019-04-06T17:17:58.859Z,21.37
2019-04-06T17:20:54.780Z,23.57
2019-04-06T17:24:12.378Z,25.50
2019-04-06T17:27:36.705Z,22.07
2019-04-06T17:30:41.860Z,24.63
2019-04-06T17:33:41.268Z,18.73
2019-04-06T17:36:51.833Z,19.10
2019-04-06T17:39:48.251Z,18.73
2019-04-06T17:42:54.021Z,18.03
2019-04-06T17:46:06.532Z,18.93
2019-04-06T17:49:18.675Z,18.03
2019-04-06T17:52:21.721Z,18.00
2019-04-06T17:55:29.333Z,17.57
2019-04-06T17:58:34.799Z,17.50
2019-04-06T18:01:47.204Z,20.63
2019-04-06T18:05:03.312Z,18.23
2019-04-06T18:08:01.557Z,16.63
2019-04-06T18:11:12.338Z,17.13
2019-04-06T18:14:03.129Z,18.70
2019-04-06T18:16:53.335Z,17.40
2019-04-06T18:19:44.890Z,21.20
2019-04-06T18:22:35.873Z,24.77
2019-04-06T18:25:27.665Z,20.40
2019-04-06T18:28:19.702Z,18.30
2019-04-06T18:31:30.160Z,19.90
2019-04-06T18:34:20.478Z,18.30
2019-04-06T18:37:37.164Z,17.00
2019-04-06T18:40:29.301Z,16.90
2019-04-06T18:43:19.633Z,16.27
2019-04-06T18:46:11.564Z,18.33
2019-04-06T18:49:03.259Z,15.83
2019-04-06T18:51:55.547Z,15.87
2019-04-06T18:54:46.932Z,17.40
2019-04-06T18:57:37.426Z,17.50
2019-04-06T19:00:30.911Z,15.37
2019-04-06T19:03:21.315Z,16.87
2019-04-06T19:06:12.369Z,18.20
2019-04-06T19:09:05.434Z,15.80
2019-04-06T19:11:57.324Z,16.57
2019-04-06T19:14:47.579Z,18.10
2019-04-06T19:17:38.752Z,16.03
2019-04-06T19:20:30.547Z,19.33
2019-04-06T19:23:21.908Z,17.77
2019-04-06T19:26:12.829Z,18.30
2019-04-06T19:29:03.445Z,17.53
2019-04-06T19:31:54.476Z,18.40
2019-04-06T19:34:45.611Z,16.53
2019-04-06T19:37:36.530Z,17.40
2019-04-06T19:40:28.126Z,17.73
2019-04-06T19:43:18.747Z,15.33
2019-04-06T19:46:10.098Z,16.57
2019-04-06T19:49:01.557Z,17.77
2019-04-06T19:51:53.249Z,17.10
2019-04-06T19:54:43.795Z,15.20
2019-04-06T19:57:35.176Z,15.77
2019-04-06T20:00:25.693Z,17.57
2019-04-06T20:03:17.219Z,16.37
2019-04-06T20:06:07.818Z,16.13
2019-04-06T20:08:59.530Z,15.57
2019-04-06T20:11:50.046Z,16.70
2019-04-06T20:14:40.754Z,15.60
2019-04-06T20:17:31.810Z,16.97
2019-04-06T20:20:22.334Z,16.53
2019-04-06T20:23:16.415Z,17.50
2019-04-06T20:26:07.090Z,17.63
2019-04-06T20:29:04.728Z,16.30
2019-04-06T20:31:56.356Z,17.93
2019-04-06T20:34:47.505Z,16.50
2019-04-06T20:37:42.291Z,15.07
2019-04-06T20:40:33.519Z,14.80
2019-04-06T20:43:24.653Z,14.70
2019-04-06T20:46:15.918Z,16.17
2019-04-06T20:49:06.824Z,15.57
2019-04-06T20:51:59.037Z,15.53
2019-04-06T20:54:50.832Z,15.70
2019-04-06T20:57:41.314Z,16.30
2019-04-06T21:00:31.687Z,14.80
2019-04-06T21:03:21.974Z,15.33
2019-04-06T21:06:13.462Z,17.90
2019-04-06T21:09:07.425Z,15.27
2019-04-06T21:11:58.073Z,15.53
2019-04-06T21:14:52.566Z,15.80
2019-04-06T21:17:42.694Z,15.93
2019-04-06T21:20:34.170Z,16.00
2019-04-06T21:23:24.559Z,16.50
2019-04-06T21:26:15.154Z,16.43
2019-04-06T21:29:07.985Z,17.43
2019-04-06T21:31:58.755Z,15.23
2019-04-06T21:34:50.478Z,16.00
2019-04-06T21:37:41.523Z,18.90
2019-04-06T21:40:33.059Z,15.57
2019-04-06T21:43:23.638Z,15.33
2019-04-06T21:46:14.269Z,17.80
2019-04-06T21:49:06.143Z,17.80
2019-04-06T21:51:56.849Z,19.13
2019-04-06T21:54:47.990Z,15.53
2019-04-06T21:57:40.393Z,16.63
2019-04-06T22:00:50.070Z,15.40
2019-04-06T22:03:41.032Z,16.00
2019-04-06T22:06:31.710Z,17.00
2019-04-06T22:09:23.197Z,17.10
2019-04-06T22:12:13.415Z,16.23
2019-04-06T22:15:05.876Z,15.83
2019-04-06T22:17:57.903Z,16.70
2019-04-06T22:20:49.082Z,17.23
2019-04-06T22:23:47.457Z,15.80
2019-04-06T22:26:40.980Z,15.43
2019-04-06T22:29:35.264Z,16.30
2019-04-06T22:32:39.303Z,16.43
2019-04-06T22:35:30.634Z,15.20
2019-04-06T22:38:21.771Z,18.80
2019-04-06T22:41:12.771Z,17.93
2019-04-06T22:44:03.193Z,15.37
2019-04-06T22:46:54.195Z,15.97
2019-04-06T22:49:45.541Z,14.87
2019-04-06T22:52:36.758Z,15.70
2019-04-06T22:55:27.100Z,15.33
2019-04-06T22:58:17.746Z,14.77
2019-04-06T23:01:11.689Z,14.90
2019-04-06T23:04:22.035Z,13.70
2019-04-06T23:07:14.999Z,13.70
2019-04-06T23:10:06.115Z,13.60
2019-04-06T23:12:57.440Z,13.40
2019-04-06T23:15:49.705Z,19.30
2019-04-06T23:18:41.319Z,14.37
2019-04-06T23:21:32.628Z,14.80
2019-04-06T23:24:26.342Z,14.40
2019-04-06T23:27:37.692Z,14.40
2019-04-06T23:30:26.717Z,13.83
2019-04-06T23:33:17.599Z,14.77
2019-04-06T23:36:08.058Z,14.53
2019-04-06T23:39:00.131Z,15.07
2019-04-06T23:41:51.799Z,14.90
2019-04-06T23:44:43.271Z,14.93
2019-04-06T23:47:35.126Z,14.03
2019-04-06T23:50:25.978Z,14.90
2019-04-06T23:53:16.981Z,16.07
2019-04-06T23:56:09.111Z,14.00
2019-04-06T23:59:00.608Z,14.23
